Time;durP1;ratioP1;P1;durP2;ratioP2;P2;SDS_P1;SDS_P2;PMS_P1;PMS_P2;Temp;Humidity;BMP_temperature;BMP_pressure;BME280_temperature;BME280_humidity;BME280_pressure;Samples;Min_cycle;Max_cycle;Signal;HPM_P1;HPM_P2
2022/04/17 00:02:05;;;;;;;59.10;22.63;;;;;;;3.83;73.91;102353.83;5156224;57;1138976;-70
2022/04/17 00:07:11;;;;;;;58.07;24.20;;;;;;;4.00;73.25;102353.05;5156030;57;1139245;-68
2022/04/17 00:12:17;;;;;;;62.00;24.07;;;;;;;4.10;73.84;102337.58;5156441;57;1139257;-68
2022/04/17 00:17:24;;;;;;;50.00;21.37;;;;;;;4.25;73.68;102331.13;5156584;57;1138949;-67
2022/04/17 00:27:40;;;;;;;48.90;20.40;;;;;;;4.20;73.96;102331.67;5317218;55;46180;-67
2022/04/17 00:32:46;;;;;;;54.40;24.43;;;;;;;4.28;74.44;102324.97;5085283;57;1134900;-68
2022/04/17 00:37:52;;;;;;;126.37;41.77;;;;;;;4.43;74.85;102334.62;5107959;57;1139123;-69
2022/04/17 00:42:59;;;;;;;130.80;43.77;;;;;;;4.55;74.80;102331.73;5127651;57;1141278;-67
2022/04/17 00:48:05;;;;;;;73.23;26.53;;;;;;;4.60;74.53;102325.91;5162442;56;1141175;-67
2022/04/17 00:53:12;;;;;;;137.50;46.50;;;;;;;4.63;74.37;102324.98;5171055;55;1139143;-68
2022/04/17 00:58:19;;;;;;;298.47;158.83;;;;;;;4.66;74.32;102320.98;5088315;57;1141518;-66
2022/04/17 01:03:25;;;;;;;50.63;25.90;;;;;;;4.62;73.98;102318.02;5037475;58;1143322;-68
2022/04/17 01:08:30;;;;;;;80.67;46.83;;;;;;;4.48;73.84;102311.80;5101773;56;1139011;-67
2022/04/17 01:13:40;;;;;;;174.03;55.53;;;;;;;4.50;74.36;102309.16;5144148;56;1139458;-68
2022/04/17 01:19:11;;;;;;;112.90;41.93;;;;;;;4.54;74.85;102310.36;5082830;57;1139110;-67
2022/04/17 01:29:40;;;;;;;39.97;16.43;;;;;;;4.52;74.26;102303.43;5035903;58;1137025;-66
2022/04/17 01:34:46;;;;;;;30.23;13.90;;;;;;;4.19;74.18;102302.00;5039168;58;1136644;-67
2022/04/17 01:39:51;;;;;;;24.37;11.60;;;;;;;3.76;74.92;102306.02;5107658;57;1137039;-68
2022/04/17 01:44:57;;;;;;;19.37;8.50;;;;;;;3.55;75.46;102302.52;5055637;57;1137038;-68
2022/04/17 01:50:04;;;;;;;16.37;7.77;;;;;;;3.34;75.94;102312.10;5113231;57;1135159;-67
2022/04/17 01:55:10;;;;;;;15.07;6.97;;;;;;;3.12;76.34;102311.18;5109918;57;1134884;-68
2022/04/17 02:00:16;;;;;;;12.67;5.57;;;;;;;2.95;76.68;102316.28;5078977;57;1135039;-67
2022/04/17 02:05:22;;;;;;;13.80;5.63;;;;;;;2.98;77.44;102304.03;5066259;58;1134842;-68
2022/04/17 02:10:29;;;;;;;12.83;5.80;;;;;;;2.98;77.31;102311.01;5076728;58;1132947;-66
2022/04/17 02:15:36;;;;;;;12.63;5.75;;;;;;;3.00;77.58;102307.48;5072354;58;1132808;-66
2022/04/17 02:20:41;;;;;;;11.43;6.07;;;;;;;3.08;77.76;102296.43;5066596;58;1136926;-67
2022/04/17 02:25:48;;;;;;;13.17;6.20;;;;;;;3.09;77.57;102290.31;5067059;57;1136933;-68
2022/04/17 02:30:54;;;;;;;10.20;5.85;;;;;;;3.09;77.42;102295.98;5076699;58;1136971;-66
2022/04/17 02:36:01;;;;;;;15.00;6.37;;;;;;;3.10;77.61;102297.72;5067404;58;1136995;-67
2022/04/17 02:41:07;;;;;;;15.47;7.10;;;;;;;3.15;77.80;102286.30;5072980;58;1137029;-67
2022/04/17 02:47:42;;;;;;;53.00;18.03;;;;;;;3.31;78.31;102286.87;5076332;57;1136975;-68
2022/04/17 02:51:20;;;;;;;83.40;26.70;;;;;;;3.47;78.74;102280.89;5145150;57;1139103;-69
2022/04/17 02:56:26;;;;;;;39.40;15.03;;;;;;;3.58;78.36;102278.91;5074506;58;1139052;-67
2022/04/17 03:06:55;;;;;;;8.88;5.72;;;;;;;3.70;77.70;102274.72;5064064;58;1139012;-68
2022/04/17 03:12:01;;;;;;;11.27;5.87;;;;;;;3.66;77.19;102256.08;5063830;58;1134906;-68
2022/04/17 03:17:07;;;;;;;19.85;8.38;;;;;;;3.56;76.97;102255.84;5087705;57;1137026;-67
2022/04/17 03:22:12;;;;;;;23.30;9.07;;;;;;;3.41;76.62;102250.48;5119137;57;1137280;-67
2022/04/17 03:27:18;;;;;;;18.63;7.33;;;;;;;3.32;76.88;102254.59;5092839;57;1136994;-67
2022/04/17 03:32:24;;;;;;;25.57;9.33;;;;;;;3.12;76.87;102259.34;5148198;57;1136923;-68
2022/04/17 03:37:30;;;;;;;18.67;9.63;;;;;;;2.78;77.37;102271.70;5145793;57;1136923;-67
2022/04/17 03:42:36;;;;;;;18.40;9.20;;;;;;;2.67;78.00;102264.51;5139085;56;1136937;-67
2022/04/17 03:47:43;;;;;;;19.23;9.03;;;;;;;2.46;78.20;102264.84;5108003;57;1137034;-66
2022/04/17 03:52:50;;;;;;;22.30;8.73;;;;;;;2.33;78.80;102266.80;5051935;58;1136971;-69
2022/04/17 03:57:55;;;;;;;14.93;7.67;;;;;;;2.22;79.17;102258.72;5062206;58;1137044;-68
2022/04/17 04:03:01;;;;;;;36.53;12.20;;;;;;;2.40;80.66;102253.22;5062121;58;1137081;-68
2022/04/17 04:08:08;;;;;;;57.50;18.40;;;;;;;2.68;80.99;102250.56;5062127;57;1139121;-68
2022/04/17 04:13:14;;;;;;;38.33;14.87;;;;;;;2.84;80.45;102253.77;5054286;58;1139125;-68
2022/04/17 04:18:21;;;;;;;26.97;9.63;;;;;;;2.97;80.36;102245.25;5069230;57;1139143;-69
2022/04/17 04:23:27;;;;;;;15.77;6.77;;;;;;;2.97;79.70;102243.50;5149522;57;1136860;-69
2022/04/17 04:28:36;;;;;;;9.93;5.10;;;;;;;2.94;79.40;102243.99;5155334;56;1136933;-69
2022/04/17 04:33:43;;;;;;;11.10;5.90;;;;;;;2.85;79.07;102237.20;5162364;57;1134727;-68
2022/04/17 04:38:49;;;;;;;10.95;4.60;;;;;;;2.76;78.93;102240.82;5162352;57;1137071;-68
2022/04/17 04:43:54;;;;;;;11.40;5.37;;;;;;;2.63;79.43;102247.16;5162200;57;1137250;-68
2022/04/17 04:54:23;;;;;;;28.70;10.57;;;;;;;2.42;81.24;102237.95;5078722;58;1137044;-69
2022/04/17 04:59:29;;;;;;;14.03;6.70;;;;;;;2.37;81.71;102239.77;5078456;58;1139073;-66
2022/04/17 05:04:35;;;;;;;18.63;7.77;;;;;;;2.37;81.86;102237.59;5078325;57;1134914;-68
2022/04/17 05:09:41;;;;;;;18.47;8.23;;;;;;;2.40;82.48;102229.27;5124644;56;1134867;-69
2022/04/17 05:14:46;;;;;;;16.97;7.03;;;;;;;2.44;82.61;102221.78;5097284;57;1134906;-69
2022/04/17 05:19:52;;;;;;;15.13;7.45;;;;;;;2.53;83.17;102227.31;5133317;57;1134928;-69
2022/04/17 05:24:58;;;;;;;13.37;8.67;;;;;;;2.54;83.68;102227.73;5152662;57;1134999;-67
2022/04/17 05:30:04;;;;;;;20.50;10.57;;;;;;;2.60;83.97;102221.55;5139223;57;1134897;-67
2022/04/17 05:35:09;;;;;;;14.70;7.33;;;;;;;2.73;84.49;102221.75;5187853;56;1137073;-68
2022/04/17 05:40:15;;;;;;;10.13;6.30;;;;;;;2.89;84.74;102221.03;5197015;56;1135083;-69
2022/04/17 05:45:22;;;;;;;12.80;5.73;;;;;;;3.13;85.95;102215.31;5183256;56;1134820;-69
2022/04/17 05:50:29;;;;;;;7.37;4.00;;;;;;;3.44;86.04;102220.34;5234552;56;1135106;-67
2022/04/17 05:55:37;;;;;;;5.93;3.30;;;;;;;3.76;85.84;102213.55;5198756;56;1132841;-69
2022/04/17 06:00:44;;;;;;;7.13;4.00;;;;;;;3.95;84.03;102214.88;5125740;56;1132844;-68
2022/04/17 06:05:50;;;;;;;11.33;3.67;;;;;;;4.16;83.87;102215.66;5085085;57;1132897;-67
2022/04/17 06:10:57;;;;;;;8.87;4.23;;;;;;;4.42;83.90;102205.88;5097169;57;1134934;-69
2022/04/17 06:16:03;;;;;;;6.93;3.63;;;;;;;4.47;81.49;102209.22;5122369;57;1132671;-69
2022/04/17 06:21:11;;;;;;;5.37;3.30;;;;;;;4.55;80.02;102209.89;5101304;57;1132461;-67
2022/04/17 06:26:16;;;;;;;7.77;4.43;;;;;;;4.65;80.35;102208.34;5076174;57;1132715;-66
2022/04/17 06:31:22;;;;;;;5.33;3.37;;;;;;;4.90;79.83;102196.28;5076175;57;1130747;-66
2022/04/17 06:36:27;;;;;;;7.53;4.30;;;;;;;5.21;79.25;102191.05;5102059;56;1130303;-67
2022/04/17 06:41:34;;;;;;;3.53;2.10;;;;;;;5.49;78.84;102193.30;5115269;56;1134676;-68
2022/04/17 06:46:41;;;;;;;3.23;2.70;;;;;;;5.81;74.11;102194.05;5202143;56;1135084;-69
2022/04/17 06:51:46;;;;;;;6.28;4.12;;;;;;;5.88;72.69;102188.61;5222259;56;1134837;-69
2022/04/17 06:56:56;;;;;;;5.50;3.70;;;;;;;6.01;72.63;102189.08;5207649;56;1134828;-67
2022/04/17 07:02:02;;;;;;;6.07;2.97;;;;;;;6.30;72.77;102182.42;5174472;56;1134915;-65
2022/04/17 07:07:08;;;;;;;7.37;3.13;;;;;;;6.47;70.71;102181.85;5240095;56;1135026;-66
2022/04/17 07:12:16;;;;;;;7.97;3.37;;;;;;;6.48;68.66;102180.09;5175484;56;1135061;-69
2022/04/17 07:17:21;;;;;;;4.73;3.33;;;;;;;6.75;67.31;102178.27;5153501;57;1134848;-69
2022/04/17 07:22:27;;;;;;;8.47;3.30;;;;;;;6.91;67.46;102176.81;5153801;57;1134870;-67
2022/04/17 07:27:49;;;;;;;2.60;2.07;;;;;;;7.11;67.61;102169.52;5155135;56;1135031;-69
2022/04/17 07:32:57;;;;;;;3.73;1.70;;;;;;;7.22;63.47;102172.60;5161672;56;1134878;-67
2022/04/17 07:38:05;;;;;;;1.70;1.60;;;;;;;7.24;62.21;102165.05;5179571;56;1134844;-68
2022/04/17 07:43:11;;;;;;;2.33;2.13;;;;;;;7.19;62.03;102174.02;5185507;56;1134788;-69
2022/04/17 07:48:16;;;;;;;3.23;1.40;;;;;;;7.38;62.74;102169.34;5196724;56;1134971;-66
2022/04/17 07:53:23;;;;;;;1.50;1.40;;;;;;;7.76;60.00;102164.38;5228299;56;1134824;-68
2022/04/17 07:58:39;;;;;;;2.33;1.73;;;;;;;7.96;61.82;102159.60;5218448;56;1134835;-69
2022/04/17 08:08:52;;;;;;;1.70;1.60;;;;;;;8.53;57.85;102139.70;5137745;57;1134908;-69
2022/04/17 08:13:59;;;;;;;2.08;1.02;;;;;;;8.68;59.78;102139.03;5102566;57;1134954;-68
2022/04/17 08:19:04;;;;;;;0.70;0.70;;;;;;;8.74;56.78;102136.95;5142092;57;1134980;-70
2022/04/17 08:24:10;;;;;;;0.93;0.87;;;;;;;8.91;58.18;102130.94;5142204;57;1134898;-72
2022/04/17 08:29:17;;;;;;;3.10;2.80;;;;;;;9.23;57.90;102132.57;5142000;57;1134908;-74
2022/04/17 08:34:23;;;;;;;1.83;1.67;;;;;;;9.36;54.95;102132.39;5151861;57;1135079;-73
2022/04/17 08:39:28;;;;;;;1.40;1.23;;;;;;;9.58;56.15;102129.61;5153311;57;1134893;-72
2022/04/17 08:44:34;;;;;;;1.17;1.10;;;;;;;9.83;53.77;102119.55;5178991;56;1137001;-73
2022/04/17 08:49:40;;;;;;;1.27;0.50;;;;;;;10.08;55.49;102118.72;5237073;56;1136946;-74
2022/04/17 08:54:48;;;;;;;1.03;0.70;;;;;;;10.23;51.32;102130.38;5224365;56;1139064;-75
2022/04/17 08:59:54;;;;;;;1.33;1.07;;;;;;;9.95;51.06;102126.88;5206005;56;1139314;-70
2022/04/17 09:05:06;;;;;;;0.63;0.63;;;;;;;9.95;52.62;102116.30;5168513;56;1136913;-75
2022/04/17 09:10:12;;;;;;;1.90;1.10;;;;;;;10.24;52.19;102116.19;5184690;56;1136935;-76
2022/04/17 09:15:18;;;;;;;1.67;1.40;;;;;;;10.69;50.92;102110.34;5188978;56;1139238;-76
2022/04/17 09:20:26;;;;;;;1.93;1.70;;;;;;;10.96;53.19;102111.98;5212793;56;1137092;-72
2022/04/17 09:25:33;;;;;;;4.17;1.77;;;;;;;11.24;53.01;102103.38;5201286;56;1136945;-74
2022/04/17 09:30:45;;;;;;;2.47;1.70;;;;;;;11.46;52.06;102097.73;5178253;56;1136996;-72
2022/04/17 09:35:58;;;;;;;8.80;1.73;;;;;;;11.71;53.13;102082.17;5166234;56;1136994;-72
2022/04/17 09:41:19;;;;;;;3.37;1.70;;;;;;;11.99;54.99;102076.14;5194618;56;1136902;-72
2022/04/17 09:46:20;;;;;;;3.10;1.57;;;;;;;12.29;53.59;102065.04;5164532;56;1136932;-75
2022/04/17 09:51:31;;;;;;;3.97;1.90;;;;;;;12.54;54.13;102056.43;5153248;56;1136843;-72
2022/04/17 09:56:46;;;;;;;2.50;1.80;;;;;;;12.69;51.09;102043.54;5118715;57;1137256;-70
2022/04/17 10:01:57;;;;;;;15.33;6.57;;;;;;;12.48;51.15;102042.70;5138338;57;1137216;-77
2022/04/17 10:07:04;;;;;;;2.27;1.60;;;;;;;12.64;51.19;102035.03;5191141;56;1137038;-80
2022/04/17 10:12:14;;;;;;;3.57;1.97;;;;;;;12.76;52.00;102031.22;5147383;56;1134803;-78
2022/04/17 10:17:24;;;;;;;2.90;2.10;;;;;;;12.74;52.28;102025.16;5138066;56;1138903;-73
2022/04/17 10:22:35;;;;;;;2.80;1.73;;;;;;;12.90;50.77;102020.11;5129626;56;1138955;-76
2022/04/17 10:27:51;;;;;;;2.97;2.17;;;;;;;13.00;49.58;102013.25;5125829;57;1139053;-79
2022/04/17 10:33:42;;;;;;;2.53;1.30;;;;;;;12.84;51.13;102004.55;5160093;56;1138980;-77
2022/04/17 10:39:12;;;;;;;2.77;2.20;;;;;;;12.84;48.60;101991.28;5199184;56;1139320;-74
2022/04/17 10:44:18;;;;;;;2.87;1.70;;;;;;;12.81;48.83;101980.02;5181329;56;1139092;-74
2022/04/17 10:49:30;;;;;;;3.03;1.60;;;;;;;13.13;46.13;101937.63;5145214;57;1139051;-76
2022/04/17 10:54:51;;;;;;;1.20;1.10;;;;;;;13.27;50.18;101967.31;5175395;56;1139053;-76
2022/04/17 11:00:28;;;;;;;4.40;1.97;;;;;;;13.58;48.49;101959.48;5238230;56;1139144;-74
2022/04/17 11:11:05;;;;;;;1.47;1.13;;;;;;;13.72;48.27;101952.27;5127228;57;1137073;-73
2022/04/17 11:16:12;;;;;;;1.30;1.20;;;;;;;13.97;48.07;101931.95;5281641;55;1137338;-78
2022/04/17 11:21:19;;;;;;;1.32;1.30;;;;;;;14.23;49.95;101940.77;5296613;56;1137093;-77
2022/04/17 11:26:57;;;;;;;1.47;1.40;;;;;;;14.43;48.58;101924.28;5298102;55;1136935;-79
2022/04/17 11:32:19;;;;;;;1.77;1.37;;;;;;;14.53;50.59;101912.48;5306130;55;1136963;-73
2022/04/17 11:37:30;;;;;;;2.17;1.30;;;;;;;14.63;50.45;101901.08;5241652;55;1134908;-72
2022/04/17 11:42:52;;;;;;;1.50;1.37;;;;;;;14.51;47.17;101891.33;5241113;56;1138949;-76
2022/04/17 11:48:01;;;;;;;1.33;1.23;;;;;;;14.34;47.33;101894.31;5235978;56;1139337;-75
2022/04/17 11:53:13;;;;;;;1.87;1.53;;;;;;;14.34;48.50;101883.19;5223634;56;1139331;-73
2022/04/17 11:58:29;;;;;;;1.43;1.33;;;;;;;14.58;48.12;101873.08;5154840;56;1139263;-77
2022/04/17 12:03:42;;;;;;;6.97;1.43;;;;;;;14.72;47.58;101876.91;5154272;56;1139092;-73
2022/04/17 12:08:49;;;;;;;3.10;1.80;;;;;;;14.77;47.20;101862.78;5184020;56;1138987;-72
2022/04/17 12:13:56;;;;;;;1.83;1.50;;;;;;;14.74;48.35;101868.33;5240679;56;1139328;-77
2022/04/17 12:19:01;;;;;;;2.80;1.90;;;;;;;15.05;49.21;101852.25;5238071;56;1138929;-72
2022/04/17 12:24:07;;;;;;;3.20;2.10;;;;;;;15.25;49.20;101848.94;5215103;56;1139025;-77
2022/04/17 12:29:14;;;;;;;1.30;1.20;;;;;;;15.26;45.81;101842.64;5150004;57;1139054;-73
2022/04/17 12:34:19;;;;;;;4.20;1.17;;;;;;;15.28;47.00;101829.17;5220487;56;1139099;-75
2022/04/17 12:39:34;;;;;;;5.77;2.00;;;;;;;15.45;46.86;101828.24;5260881;55;1139165;-76
2022/04/17 12:44:42;;;;;;;3.07;1.53;;;;;;;15.60;46.64;101822.23;5300495;55;1139103;-78
2022/04/17 12:49:47;;;;;;;2.57;1.30;;;;;;;15.78;47.20;101802.13;5215505;55;1139025;-75
2022/04/17 12:54:56;;;;;;;1.50;1.40;;;;;;;15.91;48.04;101796.66;5151010;57;1139355;-77
2022/04/17 13:00:01;;;;;;;2.03;1.63;;;;;;;15.87;45.49;101775.70;5151095;57;1139549;-75
2022/04/17 13:05:07;;;;;;;1.10;1.10;;;;;;;15.99;46.11;101777.38;5150900;57;1139069;-76
2022/04/17 13:10:13;;;;;;;1.10;1.10;;;;;;;16.19;44.41;101751.27;5151004;57;1139155;-73
2022/04/17 13:15:21;;;;;;;1.80;1.43;;;;;;;16.11;45.98;101761.22;5150877;57;1139317;-75
2022/04/17 13:20:28;;;;;;;1.77;1.67;;;;;;;16.37;46.85;101750.23;5150480;57;1139334;-76
2022/04/17 13:25:34;;;;;;;1.53;1.40;;;;;;;16.39;44.52;101748.28;5151043;57;1139049;-72
2022/04/17 13:30:40;;;;;;;1.93;1.50;;;;;;;16.54;45.06;101735.84;5150959;57;1139288;-74
2022/04/17 13:35:46;;;;;;;2.23;1.40;;;;;;;16.51;44.35;101738.76;5150805;57;1139272;-73
2022/04/17 13:40:53;;;;;;;2.70;1.83;;;;;;;16.54;45.56;101724.31;5150587;57;1139295;-76
2022/04/17 13:45:59;;;;;;;2.20;1.63;;;;;;;16.63;44.42;101722.74;5162617;56;1139052;-74
2022/04/17 13:51:06;;;;;;;2.17;1.57;;;;;;;16.70;45.53;101726.09;5298535;56;1139068;-71
2022/04/17 13:56:12;;;;;;;21.00;13.30;;;;;;;16.77;44.98;101718.42;5258770;56;1139423;-76
2022/04/17 14:01:17;;;;;;;9.00;5.80;;;;;;;16.99;46.19;101718.75;5239683;56;1143145;-74
2022/04/17 14:06:23;;;;;;;2.40;1.60;;;;;;;17.07;44.92;101711.80;5241388;56;1137080;-76
2022/04/17 14:11:29;;;;;;;2.27;1.50;;;;;;;17.05;43.33;101689.69;5241322;56;1136927;-73
2022/04/17 14:16:35;;;;;;;2.90;2.17;;;;;;;16.86;43.06;101686.89;5241201;56;1136958;-73
2022/04/17 14:21:41;;;;;;;2.33;2.13;;;;;;;16.68;43.59;101678.62;5241260;56;1136945;-76
2022/04/17 14:26:47;;;;;;;4.50;3.53;;;;;;;16.54;44.03;101670.89;5241397;56;1136940;-76
2022/04/17 14:31:52;;;;;;;2.50;1.70;;;;;;;16.39;43.15;101651.67;5142680;57;1137548;-77
2022/04/17 14:36:58;;;;;;;3.83;2.07;;;;;;;16.34;45.17;101641.89;5148219;57;1136940;-72
2022/04/17 14:42:04;;;;;;;2.90;2.23;;;;;;;16.47;44.90;101628.34;5155879;57;1137014;-74
2022/04/17 14:47:10;;;;;;;2.95;2.60;;;;;;;16.54;44.19;101619.66;5154090;57;1136989;-74
2022/04/17 14:52:16;;;;;;;2.40;2.20;;;;;;;16.68;44.66;101609.66;5065573;58;1137003;-72
2022/04/17 14:57:22;;;;;;;5.63;2.47;;;;;;;16.64;44.18;101599.74;5090346;57;1136948;-75
2022/04/17 15:02:28;;;;;;;5.80;2.00;;;;;;;16.33;42.43;101597.96;5120611;57;1137136;-76
2022/04/17 15:07:35;;;;;;;2.37;2.17;;;;;;;16.19;43.84;101599.13;5009332;58;1136919;-74
2022/04/17 15:12:42;;;;;;;2.67;1.93;;;;;;;16.13;44.45;101592.47;5109897;57;1136989;-73
2022/04/17 15:17:48;;;;;;;2.00;1.70;;;;;;;16.37;44.53;101590.88;5109106;57;1136983;-74
2022/04/17 15:22:54;;;;;;;5.63;2.77;;;;;;;16.32;44.34;101593.11;5067864;57;1136996;-73
2022/04/17 15:27:59;;;;;;;5.77;2.70;;;;;;;16.17;44.06;101591.73;5114036;57;1137054;-75
2022/04/17 15:33:05;;;;;;;1.97;1.80;;;;;;;16.04;44.06;101591.88;5153932;56;1136911;-72
2022/04/17 15:38:11;;;;;;;4.13;2.80;;;;;;;15.86;43.96;101588.59;5107396;57;1135282;-72
2022/04/17 15:48:45;;;;;;;3.97;2.57;;;;;;;15.52;45.88;101579.80;5024610;58;1143548;-74
2022/04/17 15:53:48;;;;;;;15.33;7.00;;;;;;;15.55;46.22;101568.89;5146160;57;1138958;-73
2022/04/17 15:58:53;;;;;;;11.97;4.07;;;;;;;15.59;46.01;101559.68;5142471;57;1141037;-77
2022/04/17 16:03:59;;;;;;;4.97;2.80;;;;;;;15.51;45.78;101562.11;5192862;57;1141401;-73
2022/04/17 16:09:06;;;;;;;5.23;2.90;;;;;;;15.26;45.25;101557.45;5164201;57;1139144;-72
2022/04/17 16:14:12;;;;;;;4.23;2.57;;;;;;;15.06;46.02;101555.05;5119790;57;1139132;-75
2022/04/17 16:19:19;;;;;;;9.30;5.63;;;;;;;14.96;46.50;101547.92;5125368;57;1139051;-74
2022/04/17 16:24:30;;;;;;;6.03;4.10;;;;;;;14.95;46.88;101547.56;5171416;56;1139192;-72
2022/04/17 16:29:33;;;;;;;12.47;5.80;;;;;;;15.07;47.14;101553.23;5195385;56;1139149;-74
2022/04/17 16:34:39;;;;;;;10.03;4.90;;;;;;;15.05;47.32;101543.17;5095641;57;1141169;-73
2022/04/17 16:39:45;;;;;;;14.97;7.57;;;;;;;15.02;47.31;101534.94;5177487;56;1141438;-73
2022/04/17 16:44:51;;;;;;;21.13;8.47;;;;;;;15.00;47.70;101532.03;5253244;55;1141583;-75
2022/04/17 16:49:57;;;;;;;8.47;4.60;;;;;;;14.94;47.52;101525.88;5255982;56;1141068;-74
2022/04/17 16:55:03;;;;;;;9.10;4.30;;;;;;;14.83;47.75;101520.54;5240621;56;1139172;-72
2022/04/17 17:00:10;;;;;;;25.93;11.07;;;;;;;14.76;48.11;101517.05;5196535;56;1139067;-74
2022/04/17 17:05:16;;;;;;;15.53;6.30;;;;;;;14.61;48.25;101521.41;5186019;56;1143209;-75
2022/04/17 17:10:22;;;;;;;8.60;4.73;;;;;;;14.57;48.70;101514.14;5191583;56;1141147;-73
2022/04/17 17:15:30;;;;;;;13.90;7.40;;;;;;;14.48;49.19;101507.36;5181882;56;1139369;-73
2022/04/17 17:20:37;;;;;;;9.83;5.23;;;;;;;14.38;49.38;101503.19;5154502;57;1141037;-74
2022/04/17 17:25:42;;;;;;;25.33;12.10;;;;;;;14.33;49.83;101498.73;5215206;55;1139063;-74
2022/04/17 17:30:51;;;;;;;28.07;13.13;;;;;;;14.46;50.05;101499.98;5253457;55;1143462;-76
2022/04/17 17:36:02;;;;;;;22.80;11.85;;;;;;;14.42;50.06;101499.36;5230697;55;1143208;-74
2022/04/17 17:41:07;;;;;;;22.73;11.00;;;;;;;14.33;50.27;101495.59;5155461;56;1143248;-73
2022/04/17 17:46:15;;;;;;;21.33;11.23;;;;;;;14.29;50.10;101490.61;5151106;57;1143411;-73
2022/04/17 17:51:22;;;;;;;31.03;15.57;;;;;;;14.30;50.94;101489.16;5105848;57;1143207;-72
2022/04/17 17:56:29;;;;;;;36.90;19.40;;;;;;;14.30;50.98;101486.50;5159283;56;1143205;-74
2022/04/17 18:01:34;;;;;;;48.97;25.53;;;;;;;14.28;51.25;101489.77;5150238;57;1143203;-76
2022/04/17 18:06:40;;;;;;;41.20;22.58;;;;;;;14.27;51.55;101492.06;5147636;57;1143335;-72
2022/04/17 18:17:09;;;;;;;53.48;29.77;;;;;;;14.06;51.82;101479.92;5212897;55;1143511;-73
2022/04/17 18:27:39;;;;;;;91.90;36.93;;;;;;;13.97;52.99;101487.28;5168131;56;1141119;-77
2022/04/17 18:32:46;;;;;;;81.80;40.80;;;;;;;13.79;53.63;101496.66;5185425;56;1141293;-72
2022/04/17 18:37:53;;;;;;;73.97;38.03;;;;;;;13.61;53.77;101486.92;5176577;57;1141237;-74
2022/04/17 18:42:58;;;;;;;83.90;39.07;;;;;;;13.40;53.94;101489.86;5221998;56;1141161;-72
2022/04/17 18:48:04;;;;;;;43.57;19.30;;;;;;;13.28;55.13;101500.92;5207170;55;1141138;-76
2022/04/17 18:53:10;;;;;;;43.17;17.37;;;;;;;13.18;54.90;101495.05;5203630;56;1141377;-73
2022/04/17 18:58:18;;;;;;;33.80;16.90;;;;;;;13.08;55.27;101502.81;5209468;56;1141023;-74
2022/04/17 19:03:24;;;;;;;33.47;18.90;;;;;;;12.98;55.91;101492.02;5204301;56;1141130;-75
2022/04/17 19:08:30;;;;;;;45.67;25.47;;;;;;;12.84;56.10;101488.63;5225546;56;1141160;-74
2022/04/17 19:19:01;;;;;;;77.22;35.78;;;;;;;12.23;57.18;101487.63;5192802;56;1139068;-73
2022/04/17 19:24:07;;;;;;;80.12;39.15;;;;;;;11.97;57.35;101499.55;5194375;56;1143207;-72
2022/04/17 19:29:13;;;;;;;78.67;38.57;;;;;;;11.90;58.17;101504.92;5283554;55;1143207;-75
2022/04/17 19:39:43;;;;;;;78.83;39.15;;;;;;;12.16;59.12;101493.85;5251945;55;1145500;-73
2022/04/17 19:44:49;;;;;;;45.23;20.20;;;;;;;12.26;59.39;101503.34;5193290;56;1143345;-70
2022/04/17 19:49:54;;;;;;;20.17;9.57;;;;;;;12.12;58.99;101510.92;5202940;55;1143382;-72
2022/04/17 19:55:00;;;;;;;19.13;11.17;;;;;;;12.00;59.16;101519.71;5267766;55;1141071;-72
2022/04/17 20:00:08;;;;;;;12.63;6.00;;;;;;;11.93;60.07;101514.44;5262817;55;1143108;-74
2022/04/17 20:05:17;;;;;;;12.33;6.90;;;;;;;11.77;59.85;101521.23;5276410;55;1141266;-75
2022/04/17 20:10:23;;;;;;;19.90;7.10;;;;;;;11.77;59.14;101518.59;5257270;55;1141042;-74
2022/04/17 20:15:29;;;;;;;13.65;7.95;;;;;;;11.77;58.66;101525.22;5169399;56;1141089;-70
2022/04/17 20:20:35;;;;;;;13.17;6.90;;;;;;;11.79;58.08;101521.14;5142146;56;1141111;-73
2022/04/17 20:25:41;;;;;;;8.80;5.20;;;;;;;11.72;56.89;101527.78;5150331;56;1141125;-75
2022/04/17 20:30:47;;;;;;;9.83;3.47;;;;;;;11.61;56.02;101525.34;5177784;56;1139234;-71
2022/04/17 20:35:53;;;;;;;7.30;2.73;;;;;;;11.49;55.11;101529.28;5193542;56;1139249;-76
2022/04/17 20:40:59;;;;;;;8.83;3.10;;;;;;;11.38;55.21;101530.47;5236296;56;1139048;-74
2022/04/17 20:51:14;;;;;;;7.60;3.90;;;;;;;11.24;54.70;101534.00;5009101;58;1139003;-78
2022/04/17 20:56:20;;;;;;;10.07;3.93;;;;;;;11.14;53.88;101532.43;5228156;55;1139030;-72
2022/04/17 21:01:26;;;;;;;11.43;5.37;;;;;;;11.00;53.03;101531.10;5258035;55;1141119;-72
2022/04/17 21:06:33;;;;;;;5.97;3.93;;;;;;;10.91;53.27;101525.08;5241540;55;1141036;-73
2022/04/17 21:11:40;;;;;;;3.87;2.90;;;;;;;10.86;51.98;101516.56;5286444;55;1138962;-70
2022/04/17 21:16:46;;;;;;;6.23;2.87;;;;;;;10.77;51.90;101520.66;5223045;55;1139308;-72
2022/04/17 21:21:52;;;;;;;5.63;2.30;;;;;;;10.63;52.05;101518.49;5191231;56;1139025;-75
2022/04/17 21:26:58;;;;;;;10.27;2.57;;;;;;;10.44;51.79;101517.44;5184970;56;1139085;-74
2022/04/17 21:32:05;;;;;;;3.00;1.70;;;;;;;10.16;50.63;101514.27;5192654;56;1141376;-75
2022/04/17 21:37:11;;;;;;;7.03;1.83;;;;;;;9.94;49.82;101508.54;5190488;56;1139043;-74
2022/04/17 21:42:17;;;;;;;3.87;1.70;;;;;;;9.84;48.92;101505.13;5218966;56;1136950;-72
2022/04/17 21:47:23;;;;;;;2.47;1.80;;;;;;;9.70;49.17;101502.92;5235581;56;1137177;-72
2022/04/17 21:52:29;;;;;;;6.43;3.67;;;;;;;9.58;47.52;101502.31;5239425;56;1136940;-70
2022/04/17 21:57:35;;;;;;;5.60;3.27;;;;;;;9.39;48.35;101495.44;5238381;56;1134761;-74
2022/04/17 22:08:04;;;;;;;4.12;2.55;;;;;;;9.20;48.12;101496.09;5239664;56;1132713;-75
2022/04/17 22:13:10;;;;;;;4.63;2.67;;;;;;;9.11;48.28;101497.94;5238853;56;1132669;-72
2022/04/17 22:18:15;;;;;;;4.10;2.57;;;;;;;8.99;48.39;101494.20;5238898;56;1132727;-73
2022/04/17 22:23:21;;;;;;;4.40;2.73;;;;;;;8.91;48.73;101490.27;5239198;56;1132795;-75
2022/04/17 22:28:27;;;;;;;4.03;2.40;;;;;;;8.79;48.80;101488.70;5238726;56;1132742;-78
2022/04/17 22:33:33;;;;;;;10.83;4.43;;;;;;;8.70;49.26;101483.94;5238516;56;1132661;-72
2022/04/17 22:38:40;;;;;;;7.33;3.70;;;;;;;8.56;49.67;101485.13;5239349;56;1134834;-74
2022/04/17 22:43:46;;;;;;;14.40;4.27;;;;;;;8.51;50.15;101493.77;5239039;56;1132654;-73
2022/04/17 22:48:51;;;;;;;10.77;4.13;;;;;;;8.40;50.29;101488.22;5182039;56;1134827;-74
2022/04/17 22:53:57;;;;;;;12.13;5.00;;;;;;;8.28;50.76;101491.45;5198624;56;1134937;-71
